sensor_id;sensor_type;location;lat;lon;timestamp;P1;durP1;ratioP1;P2;durP2;ratioP2
20511;SDS011;10414;52.074;5.126;2023-03-23T00:02:03;7.32;;;4.07;;
20511;SDS011;10414;52.074;5.126;2023-03-23T00:04:30;7.25;;;3.95;;
20511;SDS011;10414;52.074;5.126;2023-03-23T00:06:56;8.32;;;3.80;;
20511;SDS011;10414;52.074;5.126;2023-03-23T00:09:27;8.45;;;3.35;;
20511;SDS011;10414;52.074;5.126;2023-03-23T00:11:55;7.90;;;3.55;;
20511;SDS011;10414;52.074;5.126;2023-03-23T00:14:30;7.80;;;3.45;;
20511;SDS011;10414;52.074;5.126;2023-03-23T00:17:06;5.93;;;3.13;;
20511;SDS011;10414;52.074;5.126;2023-03-23T00:19:34;10.35;;;3.83;;
20511;SDS011;10414;52.074;5.126;2023-03-23T00:22:10;8.23;;;3.70;;
20511;SDS011;10414;52.074;5.126;2023-03-23T00:24:39;9.13;;;3.55;;
20511;SDS011;10414;52.074;5.126;2023-03-23T00:27:06;8.38;;;3.95;;
20511;SDS011;10414;52.074;5.126;2023-03-23T00:29:34;9.70;;;3.60;;
20511;SDS011;10414;52.074;5.126;2023-03-23T00:32:00;15.90;;;4.10;;
20511;SDS011;10414;52.074;5.126;2023-03-23T00:34:27;6.47;;;3.42;;
20511;SDS011;10414;52.074;5.126;2023-03-23T00:36:57;7.27;;;2.80;;
20511;SDS011;10414;52.074;5.126;2023-03-23T00:39:25;7.38;;;3.05;;
20511;SDS011;10414;52.074;5.126;2023-03-23T00:41:54;5.82;;;2.90;;
20511;SDS011;10414;52.074;5.126;2023-03-23T00:44:25;5.72;;;2.30;;
20511;SDS011;10414;52.074;5.126;2023-03-23T00:46:53;9.52;;;3.20;;
20511;SDS011;10414;52.074;5.126;2023-03-23T00:49:21;5.05;;;2.55;;
20511;SDS011;10414;52.074;5.126;2023-03-23T00:51:50;6.30;;;2.78;;
20511;SDS011;10414;52.074;5.126;2023-03-23T00:54:17;9.10;;;2.80;;
20511;SDS011;10414;52.074;5.126;2023-03-23T00:56:44;10.65;;;2.70;;
20511;SDS011;10414;52.074;5.126;2023-03-23T00:59:13;8.07;;;2.70;;
20511;SDS011;10414;52.074;5.126;2023-03-23T01:01:40;5.43;;;2.88;;
20511;SDS011;10414;52.074;5.126;2023-03-23T01:04:07;7.30;;;2.70;;
20511;SDS011;10414;52.074;5.126;2023-03-23T01:06:38;5.88;;;2.72;;
20511;SDS011;10414;52.074;5.126;2023-03-23T01:09:06;6.38;;;2.97;;
20511;SDS011;10414;52.074;5.126;2023-03-23T01:11:34;7.13;;;2.70;;
20511;SDS011;10414;52.074;5.126;2023-03-23T01:14:01;6.47;;;2.53;;
20511;SDS011;10414;52.074;5.126;2023-03-23T01:16:29;7.82;;;2.50;;
20511;SDS011;10414;52.074;5.126;2023-03-23T01:18:56;6.05;;;2.40;;
20511;SDS011;10414;52.074;5.126;2023-03-23T01:21:23;4.97;;;2.38;;
20511;SDS011;10414;52.074;5.126;2023-03-23T01:23:51;6.80;;;2.38;;
20511;SDS011;10414;52.074;5.126;2023-03-23T01:26:18;8.40;;;2.67;;
20511;SDS011;10414;52.074;5.126;2023-03-23T01:28:46;5.22;;;2.58;;
20511;SDS011;10414;52.074;5.126;2023-03-23T01:31:15;5.88;;;2.67;;
20511;SDS011;10414;52.074;5.126;2023-03-23T01:33:44;4.70;;;2.45;;
20511;SDS011;10414;52.074;5.126;2023-03-23T01:36:12;5.80;;;2.50;;
20511;SDS011;10414;52.074;5.126;2023-03-23T01:38:41;7.35;;;2.80;;
20511;SDS011;10414;52.074;5.126;2023-03-23T01:41:08;5.60;;;2.92;;
20511;SDS011;10414;52.074;5.126;2023-03-23T01:43:35;6.97;;;2.92;;
20511;SDS011;10414;52.074;5.126;2023-03-23T01:46:19;7.15;;;2.50;;
20511;SDS011;10414;52.074;5.126;2023-03-23T01:48:48;7.28;;;2.90;;
20511;SDS011;10414;52.074;5.126;2023-03-23T01:51:17;8.70;;;2.60;;
20511;SDS011;10414;52.074;5.126;2023-03-23T01:53:47;4.90;;;2.38;;
20511;SDS011;10414;52.074;5.126;2023-03-23T01:56:18;7.20;;;2.50;;
20511;SDS011;10414;52.074;5.126;2023-03-23T01:58:50;9.18;;;2.65;;
20511;SDS011;10414;52.074;5.126;2023-03-23T02:01:17;4.85;;;2.50;;
20511;SDS011;10414;52.074;5.126;2023-03-23T02:03:46;5.53;;;2.35;;
20511;SDS011;10414;52.074;5.126;2023-03-23T02:06:15;5.15;;;2.40;;
20511;SDS011;10414;52.074;5.126;2023-03-23T02:08:42;6.03;;;2.65;;
20511;SDS011;10414;52.074;5.126;2023-03-23T02:11:12;6.22;;;2.40;;
20511;SDS011;10414;52.074;5.126;2023-03-23T02:13:40;7.88;;;2.63;;
20511;SDS011;10414;52.074;5.126;2023-03-23T02:16:08;9.75;;;3.13;;
20511;SDS011;10414;52.074;5.126;2023-03-23T02:18:45;6.72;;;2.58;;
20511;SDS011;10414;52.074;5.126;2023-03-23T02:24:30;4.28;;;2.22;;
20511;SDS011;10414;52.074;5.126;2023-03-23T02:27:10;5.53;;;2.50;;
20511;SDS011;10414;52.074;5.126;2023-03-23T02:29:56;5.80;;;2.45;;
20511;SDS011;10414;52.074;5.126;2023-03-23T02:32:45;7.05;;;2.70;;
20511;SDS011;10414;52.074;5.126;2023-03-23T02:35:36;4.78;;;2.40;;
20511;SDS011;10414;52.074;5.126;2023-03-23T02:38:06;6.55;;;2.40;;
20511;SDS011;10414;52.074;5.126;2023-03-23T02:40:39;6.82;;;2.50;;
20511;SDS011;10414;52.074;5.126;2023-03-23T02:43:09;5.38;;;2.38;;
20511;SDS011;10414;52.074;5.126;2023-03-23T02:45:39;7.50;;;2.42;;
20511;SDS011;10414;52.074;5.126;2023-03-23T02:48:08;5.05;;;2.47;;
20511;SDS011;10414;52.074;5.126;2023-03-23T02:50:38;7.30;;;2.70;;
20511;SDS011;10414;52.074;5.126;2023-03-23T02:53:08;6.65;;;2.47;;
20511;SDS011;10414;52.074;5.126;2023-03-23T02:55:38;5.88;;;2.83;;
20511;SDS011;10414;52.074;5.126;2023-03-23T02:58:07;6.82;;;2.38;;
20511;SDS011;10414;52.074;5.126;2023-03-23T03:00:35;4.50;;;2.15;;
20511;SDS011;10414;52.074;5.126;2023-03-23T03:03:03;7.53;;;2.65;;
20511;SDS011;10414;52.074;5.126;2023-03-23T03:05:35;7.03;;;2.28;;
20511;SDS011;10414;52.074;5.126;2023-03-23T03:08:10;6.45;;;2.22;;
20511;SDS011;10414;52.074;5.126;2023-03-23T03:10:44;7.13;;;1.95;;
20511;SDS011;10414;52.074;5.126;2023-03-23T03:13:19;7.78;;;2.20;;
20511;SDS011;10414;52.074;5.126;2023-03-23T03:15:54;7.45;;;2.03;;
20511;SDS011;10414;52.074;5.126;2023-03-23T03:18:26;6.68;;;2.00;;
20511;SDS011;10414;52.074;5.126;2023-03-23T03:23:26;6.68;;;1.92;;
20511;SDS011;10414;52.074;5.126;2023-03-23T03:25:54;6.63;;;1.92;;
20511;SDS011;10414;52.074;5.126;2023-03-23T03:28:24;6.22;;;2.03;;
20511;SDS011;10414;52.074;5.126;2023-03-23T03:30:53;5.15;;;1.88;;
20511;SDS011;10414;52.074;5.126;2023-03-23T03:33:22;4.95;;;1.60;;
20511;SDS011;10414;52.074;5.126;2023-03-23T03:35:51;5.20;;;1.70;;
20511;SDS011;10414;52.074;5.126;2023-03-23T03:38:21;6.75;;;1.70;;
20511;SDS011;10414;52.074;5.126;2023-03-23T03:40:49;7.40;;;1.45;;
20511;SDS011;10414;52.074;5.126;2023-03-23T03:43:16;5.53;;;1.70;;
20511;SDS011;10414;52.074;5.126;2023-03-23T03:45:43;6.03;;;1.92;;
20511;SDS011;10414;52.074;5.126;2023-03-23T03:48:10;4.47;;;1.58;;
20511;SDS011;10414;52.074;5.126;2023-03-23T03:50:37;8.05;;;2.10;;
20511;SDS011;10414;52.074;5.126;2023-03-23T03:53:04;4.97;;;1.75;;
20511;SDS011;10414;52.074;5.126;2023-03-23T03:55:33;6.85;;;1.90;;
20511;SDS011;10414;52.074;5.126;2023-03-23T03:58:03;7.90;;;2.13;;
20511;SDS011;10414;52.074;5.126;2023-03-23T04:00:30;4.18;;;1.80;;
20511;SDS011;10414;52.074;5.126;2023-03-23T04:02:57;7.07;;;1.50;;
20511;SDS011;10414;52.074;5.126;2023-03-23T04:05:25;5.47;;;1.85;;
20511;SDS011;10414;52.074;5.126;2023-03-23T04:07:54;4.60;;;1.60;;
20511;SDS011;10414;52.074;5.126;2023-03-23T04:10:26;7.95;;;1.73;;
20511;SDS011;10414;52.074;5.126;2023-03-23T04:12:55;5.60;;;1.70;;
20511;SDS011;10414;52.074;5.126;2023-03-23T04:15:22;7.65;;;1.90;;
20511;SDS011;10414;52.074;5.126;2023-03-23T04:17:50;6.50;;;1.60;;
20511;SDS011;10414;52.074;5.126;2023-03-23T04:20:17;7.13;;;1.70;;
20511;SDS011;10414;52.074;5.126;2023-03-23T04:22:44;5.22;;;1.60;;
20511;SDS011;10414;52.074;5.126;2023-03-23T04:25:14;10.30;;;1.70;;
20511;SDS011;10414;52.074;5.126;2023-03-23T04:27:42;9.45;;;1.40;;
20511;SDS011;10414;52.074;5.126;2023-03-23T04:30:13;6.63;;;1.60;;
20511;SDS011;10414;52.074;5.126;2023-03-23T04:32:40;8.25;;;2.10;;
20511;SDS011;10414;52.074;5.126;2023-03-23T04:35:08;6.80;;;1.50;;
20511;SDS011;10414;52.074;5.126;2023-03-23T04:37:37;8.50;;;1.75;;
20511;SDS011;10414;52.074;5.126;2023-03-23T04:40:07;6.75;;;1.50;;
20511;SDS011;10414;52.074;5.126;2023-03-23T04:42:37;6.93;;;1.40;;
20511;SDS011;10414;52.074;5.126;2023-03-23T04:45:05;8.18;;;1.38;;
20511;SDS011;10414;52.074;5.126;2023-03-23T04:47:35;5.53;;;1.60;;
20511;SDS011;10414;52.074;5.126;2023-03-23T04:50:06;7.38;;;1.40;;
20511;SDS011;10414;52.074;5.126;2023-03-23T04:52:34;7.72;;;1.42;;
20511;SDS011;10414;52.074;5.126;2023-03-23T04:55:03;9.15;;;1.88;;
20511;SDS011;10414;52.074;5.126;2023-03-23T04:57:30;5.60;;;1.42;;
20511;SDS011;10414;52.074;5.126;2023-03-23T04:59:58;7.65;;;1.77;;
20511;SDS011;10414;52.074;5.126;2023-03-23T05:02:25;8.18;;;2.17;;
20511;SDS011;10414;52.074;5.126;2023-03-23T05:04:56;7.23;;;2.07;;
20511;SDS011;10414;52.074;5.126;2023-03-23T05:07:24;8.48;;;1.63;;
20511;SDS011;10414;52.074;5.126;2023-03-23T05:09:51;6.35;;;1.60;;
20511;SDS011;10414;52.074;5.126;2023-03-23T05:12:17;8.65;;;1.42;;
20511;SDS011;10414;52.074;5.126;2023-03-23T05:14:44;10.70;;;1.60;;
20511;SDS011;10414;52.074;5.126;2023-03-23T05:17:11;6.47;;;1.52;;
20511;SDS011;10414;52.074;5.126;2023-03-23T05:19:41;9.52;;;2.22;;
20511;SDS011;10414;52.074;5.126;2023-03-23T05:22:11;9.77;;;1.50;;
20511;SDS011;10414;52.074;5.126;2023-03-23T05:24:39;7.75;;;1.98;;
20511;SDS011;10414;52.074;5.126;2023-03-23T05:27:07;8.00;;;1.60;;
20511;SDS011;10414;52.074;5.126;2023-03-23T05:29:35;10.30;;;2.28;;
20511;SDS011;10414;52.074;5.126;2023-03-23T05:32:02;11.10;;;1.83;;
20511;SDS011;10414;52.074;5.126;2023-03-23T05:34:30;7.05;;;1.50;;
20511;SDS011;10414;52.074;5.126;2023-03-23T05:36:58;8.05;;;1.85;;
20511;SDS011;10414;52.074;5.126;2023-03-23T05:39:26;10.43;;;1.80;;
20511;SDS011;10414;52.074;5.126;2023-03-23T05:41:54;8.02;;;1.67;;
20511;SDS011;10414;52.074;5.126;2023-03-23T05:44:21;9.43;;;2.08;;
20511;SDS011;10414;52.074;5.126;2023-03-23T05:46:48;14.27;;;2.05;;
20511;SDS011;10414;52.074;5.126;2023-03-23T05:49:16;10.07;;;1.88;;
20511;SDS011;10414;52.074;5.126;2023-03-23T05:51:43;10.75;;;2.88;;
20511;SDS011;10414;52.074;5.126;2023-03-23T05:54:10;8.90;;;1.90;;
20511;SDS011;10414;52.074;5.126;2023-03-23T05:56:40;10.20;;;2.22;;
20511;SDS011;10414;52.074;5.126;2023-03-23T05:59:07;10.05;;;2.10;;
20511;SDS011;10414;52.074;5.126;2023-03-23T06:01:35;10.98;;;1.85;;
20511;SDS011;10414;52.074;5.126;2023-03-23T06:04:02;9.35;;;2.38;;
20511;SDS011;10414;52.074;5.126;2023-03-23T06:06:29;10.52;;;2.45;;
20511;SDS011;10414;52.074;5.126;2023-03-23T06:08:57;9.98;;;2.42;;
20511;SDS011;10414;52.074;5.126;2023-03-23T06:11:25;11.77;;;2.47;;
20511;SDS011;10414;52.074;5.126;2023-03-23T06:13:53;14.35;;;2.35;;
20511;SDS011;10414;52.074;5.126;2023-03-23T06:16:20;10.77;;;2.28;;
20511;SDS011;10414;52.074;5.126;2023-03-23T06:18:47;11.10;;;2.25;;
20511;SDS011;10414;52.074;5.126;2023-03-23T06:21:14;7.65;;;2.20;;
20511;SDS011;10414;52.074;5.126;2023-03-23T06:23:43;10.10;;;2.47;;
20511;SDS011;10414;52.074;5.126;2023-03-23T06:26:10;16.75;;;2.60;;
20511;SDS011;10414;52.074;5.126;2023-03-23T06:28:41;10.98;;;2.53;;
20511;SDS011;10414;52.074;5.126;2023-03-23T06:31:10;9.05;;;2.33;;
20511;SDS011;10414;52.074;5.126;2023-03-23T06:33:37;9.27;;;2.78;;
20511;SDS011;10414;52.074;5.126;2023-03-23T06:36:04;8.63;;;2.30;;
20511;SDS011;10414;52.074;5.126;2023-03-23T06:38:32;8.23;;;2.10;;
20511;SDS011;10414;52.074;5.126;2023-03-23T06:40:59;13.23;;;2.40;;
20511;SDS011;10414;52.074;5.126;2023-03-23T06:43:27;8.85;;;2.83;;
20511;SDS011;10414;52.074;5.126;2023-03-23T06:45:53;10.65;;;2.30;;
20511;SDS011;10414;52.074;5.126;2023-03-23T06:48:22;11.00;;;2.50;;
20511;SDS011;10414;52.074;5.126;2023-03-23T06:50:49;12.00;;;2.50;;
20511;SDS011;10414;52.074;5.126;2023-03-23T06:53:15;14.23;;;2.80;;
20511;SDS011;10414;52.074;5.126;2023-03-23T06:55:45;12.55;;;2.90;;
20511;SDS011;10414;52.074;5.126;2023-03-23T06:58:12;12.77;;;2.40;;
20511;SDS011;10414;52.074;5.126;2023-03-23T07:00:39;7.90;;;2.00;;
20511;SDS011;10414;52.074;5.126;2023-03-23T07:03:06;9.80;;;2.38;;
20511;SDS011;10414;52.074;5.126;2023-03-23T07:05:34;6.00;;;2.00;;
20511;SDS011;10414;52.074;5.126;2023-03-23T07:08:02;10.57;;;2.30;;
20511;SDS011;10414;52.074;5.126;2023-03-23T07:10:29;8.07;;;2.00;;
20511;SDS011;10414;52.074;5.126;2023-03-23T07:12:56;12.75;;;3.42;;
20511;SDS011;10414;52.074;5.126;2023-03-23T07:15:24;13.68;;;3.22;;
20511;SDS011;10414;52.074;5.126;2023-03-23T07:17:51;7.38;;;2.17;;
20511;SDS011;10414;52.074;5.126;2023-03-23T07:20:19;7.68;;;2.10;;
20511;SDS011;10414;52.074;5.126;2023-03-23T07:22:47;9.07;;;1.77;;
20511;SDS011;10414;52.074;5.126;2023-03-23T07:25:14;12.05;;;2.20;;
20511;SDS011;10414;52.074;5.126;2023-03-23T07:27:42;9.93;;;2.10;;
20511;SDS011;10414;52.074;5.126;2023-03-23T07:30:11;14.90;;;2.60;;
20511;SDS011;10414;52.074;5.126;2023-03-23T07:32:38;10.18;;;2.20;;
20511;SDS011;10414;52.074;5.126;2023-03-23T07:35:06;13.45;;;1.95;;
20511;SDS011;10414;52.074;5.126;2023-03-23T07:37:34;10.32;;;1.88;;
20511;SDS011;10414;52.074;5.126;2023-03-23T07:40:03;9.75;;;2.05;;
20511;SDS011;10414;52.074;5.126;2023-03-23T07:42:39;11.07;;;2.05;;
20511;SDS011;10414;52.074;5.126;2023-03-23T07:45:07;9.93;;;1.98;;
20511;SDS011;10414;52.074;5.126;2023-03-23T07:47:34;10.10;;;1.80;;
20511;SDS011;10414;52.074;5.126;2023-03-23T07:50:01;11.05;;;1.85;;
20511;SDS011;10414;52.074;5.126;2023-03-23T07:52:28;11.98;;;2.03;;
20511;SDS011;10414;52.074;5.126;2023-03-23T07:54:56;8.15;;;2.20;;
20511;SDS011;10414;52.074;5.126;2023-03-23T07:57:24;13.10;;;2.53;;
20511;SDS011;10414;52.074;5.126;2023-03-23T07:59:51;5.45;;;1.92;;
20511;SDS011;10414;52.074;5.126;2023-03-23T08:02:18;8.63;;;2.22;;
20511;SDS011;10414;52.074;5.126;2023-03-23T08:04:45;8.60;;;2.08;;
20511;SDS011;10414;52.074;5.126;2023-03-23T08:07:12;12.75;;;2.30;;
20511;SDS011;10414;52.074;5.126;2023-03-23T08:09:41;8.10;;;2.20;;
20511;SDS011;10414;52.074;5.126;2023-03-23T08:12:08;9.05;;;2.10;;
20511;SDS011;10414;52.074;5.126;2023-03-23T08:14:36;11.73;;;2.20;;
20511;SDS011;10414;52.074;5.126;2023-03-23T08:17:05;8.13;;;1.93;;
20511;SDS011;10414;52.074;5.126;2023-03-23T08:19:32;8.07;;;1.90;;
20511;SDS011;10414;52.074;5.126;2023-03-23T08:22:01;8.68;;;2.30;;
20511;SDS011;10414;52.074;5.126;2023-03-23T08:24:28;6.70;;;2.08;;
20511;SDS011;10414;52.074;5.126;2023-03-23T08:26:56;9.90;;;1.90;;
20511;SDS011;10414;52.074;5.126;2023-03-23T08:29:22;8.23;;;2.08;;
20511;SDS011;10414;52.074;5.126;2023-03-23T08:31:51;11.68;;;2.10;;
20511;SDS011;10414;52.074;5.126;2023-03-23T08:34:18;8.05;;;2.42;;
20511;SDS011;10414;52.074;5.126;2023-03-23T08:36:45;9.20;;;2.35;;
20511;SDS011;10414;52.074;5.126;2023-03-23T08:39:13;9.95;;;2.38;;
20511;SDS011;10414;52.074;5.126;2023-03-23T08:41:41;10.38;;;2.55;;
20511;SDS011;10414;52.074;5.126;2023-03-23T08:44:09;9.48;;;2.72;;
20511;SDS011;10414;52.074;5.126;2023-03-23T08:46:37;9.25;;;1.85;;
20511;SDS011;10414;52.074;5.126;2023-03-23T08:49:05;11.02;;;2.42;;
20511;SDS011;10414;52.074;5.126;2023-03-23T08:51:32;9.75;;;2.20;;
20511;SDS011;10414;52.074;5.126;2023-03-23T08:53:59;6.70;;;1.65;;
20511;SDS011;10414;52.074;5.126;2023-03-23T08:56:26;11.10;;;1.80;;
20511;SDS011;10414;52.074;5.126;2023-03-23T08:58:53;9.27;;;1.98;;
20511;SDS011;10414;52.074;5.126;2023-03-23T09:01:20;12.15;;;2.20;;
20511;SDS011;10414;52.074;5.126;2023-03-23T09:03:46;11.90;;;2.35;;
20511;SDS011;10414;52.074;5.126;2023-03-23T09:06:15;9.50;;;1.90;;
20511;SDS011;10414;52.074;5.126;2023-03-23T09:08:42;5.55;;;1.48;;
20511;SDS011;10414;52.074;5.126;2023-03-23T09:11:10;11.30;;;2.22;;
20511;SDS011;10414;52.074;5.126;2023-03-23T09:13:37;11.05;;;1.90;;
20511;SDS011;10414;52.074;5.126;2023-03-23T09:16:05;10.35;;;2.42;;
20511;SDS011;10414;52.074;5.126;2023-03-23T09:18:33;11.30;;;2.10;;
20511;SDS011;10414;52.074;5.126;2023-03-23T09:21:01;10.20;;;2.05;;
20511;SDS011;10414;52.074;5.126;2023-03-23T09:23:31;9.02;;;1.50;;
20511;SDS011;10414;52.074;5.126;2023-03-23T09:25:59;8.85;;;2.15;;
20511;SDS011;10414;52.074;5.126;2023-03-23T09:28:27;9.00;;;1.85;;
20511;SDS011;10414;52.074;5.126;2023-03-23T09:30:56;8.27;;;1.60;;
20511;SDS011;10414;52.074;5.126;2023-03-23T09:33:24;7.88;;;1.73;;
20511;SDS011;10414;52.074;5.126;2023-03-23T09:35:52;12.68;;;1.70;;
20511;SDS011;10414;52.074;5.126;2023-03-23T09:38:18;10.07;;;1.92;;
20511;SDS011;10414;52.074;5.126;2023-03-23T09:40:49;12.02;;;1.83;;
20511;SDS011;10414;52.074;5.126;2023-03-23T09:43:22;13.48;;;2.58;;
20511;SDS011;10414;52.074;5.126;2023-03-23T09:46:16;7.47;;;2.00;;
20511;SDS011;10414;52.074;5.126;2023-03-23T09:48:52;8.88;;;1.60;;
20511;SDS011;10414;52.074;5.126;2023-03-23T09:51:25;11.32;;;2.08;;
20511;SDS011;10414;52.074;5.126;2023-03-23T09:54:00;9.60;;;2.00;;
20511;SDS011;10414;52.074;5.126;2023-03-23T09:56:32;9.15;;;1.67;;
20511;SDS011;10414;52.074;5.126;2023-03-23T09:59:02;8.80;;;2.00;;
20511;SDS011;10414;52.074;5.126;2023-03-23T10:01:46;11.10;;;1.80;;
20511;SDS011;10414;52.074;5.126;2023-03-23T10:04:17;9.27;;;1.80;;
20511;SDS011;10414;52.074;5.126;2023-03-23T10:06:53;11.93;;;1.80;;
20511;SDS011;10414;52.074;5.126;2023-03-23T10:09:25;8.98;;;1.85;;
20511;SDS011;10414;52.074;5.126;2023-03-23T10:11:56;10.75;;;1.40;;
20511;SDS011;10414;52.074;5.126;2023-03-23T10:20:02;7.15;;;1.70;;
20511;SDS011;10414;52.074;5.126;2023-03-23T10:22:42;9.10;;;1.80;;
20511;SDS011;10414;52.074;5.126;2023-03-23T10:25:15;11.45;;;1.95;;
20511;SDS011;10414;52.074;5.126;2023-03-23T10:27:47;10.43;;;1.67;;
20511;SDS011;10414;52.074;5.126;2023-03-23T10:30:19;10.40;;;2.00;;
20511;SDS011;10414;52.074;5.126;2023-03-23T10:32:52;7.85;;;1.55;;
20511;SDS011;10414;52.074;5.126;2023-03-23T10:35:24;13.55;;;2.75;;
20511;SDS011;10414;52.074;5.126;2023-03-23T10:37:56;10.68;;;2.33;;
20511;SDS011;10414;52.074;5.126;2023-03-23T10:40:26;9.27;;;2.13;;
20511;SDS011;10414;52.074;5.126;2023-03-23T10:42:57;9.38;;;2.10;;
20511;SDS011;10414;52.074;5.126;2023-03-23T10:45:25;9.05;;;2.05;;
20511;SDS011;10414;52.074;5.126;2023-03-23T10:47:55;11.57;;;1.90;;
20511;SDS011;10414;52.074;5.126;2023-03-23T10:50:26;8.50;;;2.00;;
20511;SDS011;10414;52.074;5.126;2023-03-23T10:55:24;8.52;;;1.65;;
20511;SDS011;10414;52.074;5.126;2023-03-23T10:58:03;10.05;;;2.55;;
20511;SDS011;10414;52.074;5.126;2023-03-23T11:00:31;12.43;;;2.00;;
20511;SDS011;10414;52.074;5.126;2023-03-23T11:02:59;10.40;;;2.22;;
20511;SDS011;10414;52.074;5.126;2023-03-23T11:08:00;16.48;;;2.83;;
20511;SDS011;10414;52.074;5.126;2023-03-23T11:10:37;12.20;;;2.17;;
20511;SDS011;10414;52.074;5.126;2023-03-23T11:13:09;9.63;;;2.10;;
20511;SDS011;10414;52.074;5.126;2023-03-23T11:15:39;12.77;;;2.78;;
20511;SDS011;10414;52.074;5.126;2023-03-23T11:18:10;7.90;;;1.85;;
20511;SDS011;10414;52.074;5.126;2023-03-23T11:20:39;8.77;;;2.22;;
20511;SDS011;10414;52.074;5.126;2023-03-23T11:23:08;11.67;;;2.17;;
20511;SDS011;10414;52.074;5.126;2023-03-23T11:25:52;9.50;;;1.70;;
20511;SDS011;10414;52.074;5.126;2023-03-23T11:28:25;14.38;;;2.05;;
20511;SDS011;10414;52.074;5.126;2023-03-23T11:30:54;12.85;;;2.28;;
20511;SDS011;10414;52.074;5.126;2023-03-23T11:33:22;11.90;;;2.45;;
20511;SDS011;10414;52.074;5.126;2023-03-23T11:35:51;11.88;;;2.13;;
20511;SDS011;10414;52.074;5.126;2023-03-23T11:38:20;8.60;;;2.00;;
20511;SDS011;10414;52.074;5.126;2023-03-23T11:40:51;10.63;;;1.92;;
20511;SDS011;10414;52.074;5.126;2023-03-23T11:43:19;9.70;;;1.90;;
20511;SDS011;10414;52.074;5.126;2023-03-23T11:45:50;10.45;;;1.75;;
20511;SDS011;10414;52.074;5.126;2023-03-23T11:48:26;10.77;;;1.85;;
20511;SDS011;10414;52.074;5.126;2023-03-23T11:51:00;11.63;;;1.92;;
20511;SDS011;10414;52.074;5.126;2023-03-23T11:56:04;12.55;;;1.90;;
20511;SDS011;10414;52.074;5.126;2023-03-23T11:58:37;15.55;;;2.97;;
20511;SDS011;10414;52.074;5.126;2023-03-23T12:01:09;12.50;;;1.98;;
20511;SDS011;10414;52.074;5.126;2023-03-23T12:03:50;15.73;;;2.35;;
20511;SDS011;10414;52.074;5.126;2023-03-23T12:06:32;11.95;;;2.15;;
20511;SDS011;10414;52.074;5.126;2023-03-23T12:09:08;11.13;;;3.15;;
20511;SDS011;10414;52.074;5.126;2023-03-23T12:14:18;9.68;;;1.98;;
20511;SDS011;10414;52.074;5.126;2023-03-23T12:16:56;8.65;;;1.80;;
20511;SDS011;10414;52.074;5.126;2023-03-23T12:19:33;9.63;;;2.22;;
20511;SDS011;10414;52.074;5.126;2023-03-23T12:22:11;10.45;;;1.80;;
20511;SDS011;10414;52.074;5.126;2023-03-23T12:24:50;8.45;;;1.83;;
20511;SDS011;10414;52.074;5.126;2023-03-23T12:27:26;10.60;;;2.10;;
20511;SDS011;10414;52.074;5.126;2023-03-23T12:30:11;12.45;;;2.00;;
20511;SDS011;10414;52.074;5.126;2023-03-23T12:32:52;9.15;;;1.92;;
20511;SDS011;10414;52.074;5.126;2023-03-23T12:35:33;10.43;;;1.80;;
20511;SDS011;10414;52.074;5.126;2023-03-23T12:38:20;9.27;;;1.50;;
20511;SDS011;10414;52.074;5.126;2023-03-23T12:41:01;6.70;;;1.30;;
20511;SDS011;10414;52.074;5.126;2023-03-23T12:43:42;10.45;;;1.73;;
20511;SDS011;10414;52.074;5.126;2023-03-23T12:49:26;9.88;;;1.65;;
20511;SDS011;10414;52.074;5.126;2023-03-23T12:51:58;10.25;;;1.70;;
20511;SDS011;10414;52.074;5.126;2023-03-23T12:54:32;7.13;;;2.00;;
20511;SDS011;10414;52.074;5.126;2023-03-23T12:57:08;5.90;;;1.40;;
20511;SDS011;10414;52.074;5.126;2023-03-23T12:59:40;8.90;;;1.60;;
20511;SDS011;10414;52.074;5.126;2023-03-23T13:02:14;8.27;;;1.55;;
20511;SDS011;10414;52.074;5.126;2023-03-23T13:04:52;10.77;;;1.58;;
20511;SDS011;10414;52.074;5.126;2023-03-23T13:07:26;9.70;;;1.63;;
20511;SDS011;10414;52.074;5.126;2023-03-23T13:10:00;7.72;;;1.50;;
20511;SDS011;10414;52.074;5.126;2023-03-23T13:12:30;6.85;;;1.35;;
20511;SDS011;10414;52.074;5.126;2023-03-23T13:15:02;9.13;;;1.83;;
20511;SDS011;10414;52.074;5.126;2023-03-23T13:17:43;10.05;;;1.75;;
20511;SDS011;10414;52.074;5.126;2023-03-23T13:20:23;8.98;;;1.30;;
20511;SDS011;10414;52.074;5.126;2023-03-23T13:23:13;7.85;;;1.60;;
20511;SDS011;10414;52.074;5.126;2023-03-23T13:25:45;9.88;;;1.70;;
20511;SDS011;10414;52.074;5.126;2023-03-23T13:28:16;9.40;;;1.77;;
20511;SDS011;10414;52.074;5.126;2023-03-23T13:30:56;6.82;;;1.65;;
20511;SDS011;10414;52.074;5.126;2023-03-23T13:33:25;8.95;;;2.00;;
20511;SDS011;10414;52.074;5.126;2023-03-23T13:35:56;7.10;;;1.70;;
20511;SDS011;10414;52.074;5.126;2023-03-23T13:38:30;11.25;;;1.70;;
20511;SDS011;10414;52.074;5.126;2023-03-23T13:40:57;15.60;;;2.20;;
20511;SDS011;10414;52.074;5.126;2023-03-23T13:43:32;6.90;;;1.65;;
20511;SDS011;10414;52.074;5.126;2023-03-23T13:46:11;10.13;;;1.70;;
20511;SDS011;10414;52.074;5.126;2023-03-23T13:48:50;9.00;;;1.80;;
20511;SDS011;10414;52.074;5.126;2023-03-23T13:51:34;9.23;;;1.73;;
20511;SDS011;10414;52.074;5.126;2023-03-23T13:54:05;8.98;;;1.40;;
20511;SDS011;10414;52.074;5.126;2023-03-23T13:56:40;5.18;;;1.40;;
20511;SDS011;10414;52.074;5.126;2023-03-23T13:59:12;8.43;;;1.83;;
20511;SDS011;10414;52.074;5.126;2023-03-23T14:01:42;6.43;;;1.65;;
20511;SDS011;10414;52.074;5.126;2023-03-23T14:04:10;9.15;;;1.67;;
20511;SDS011;10414;52.074;5.126;2023-03-23T14:06:41;8.68;;;1.60;;
20511;SDS011;10414;52.074;5.126;2023-03-23T14:09:12;9.73;;;2.15;;
20511;SDS011;10414;52.074;5.126;2023-03-23T14:11:47;5.78;;;1.92;;
20511;SDS011;10414;52.074;5.126;2023-03-23T14:14:21;11.55;;;2.08;;
20511;SDS011;10414;52.074;5.126;2023-03-23T14:16:51;7.32;;;2.13;;
20511;SDS011;10414;52.074;5.126;2023-03-23T14:19:19;11.70;;;3.33;;
20511;SDS011;10414;52.074;5.126;2023-03-23T14:21:52;10.57;;;2.40;;
20511;SDS011;10414;52.074;5.126;2023-03-23T14:24:21;9.77;;;2.35;;
20511;SDS011;10414;52.074;5.126;2023-03-23T14:26:49;7.45;;;1.88;;
20511;SDS011;10414;52.074;5.126;2023-03-23T14:29:18;7.60;;;1.67;;
20511;SDS011;10414;52.074;5.126;2023-03-23T14:31:48;11.88;;;2.05;;
20511;SDS011;10414;52.074;5.126;2023-03-23T14:34:20;10.18;;;1.98;;
20511;SDS011;10414;52.074;5.126;2023-03-23T14:36:51;10.93;;;2.30;;
20511;SDS011;10414;52.074;5.126;2023-03-23T14:39:20;10.73;;;1.88;;
20511;SDS011;10414;52.074;5.126;2023-03-23T14:41:50;11.15;;;1.92;;
20511;SDS011;10414;52.074;5.126;2023-03-23T14:44:18;6.97;;;1.60;;
20511;SDS011;10414;52.074;5.126;2023-03-23T14:46:49;14.07;;;2.03;;
20511;SDS011;10414;52.074;5.126;2023-03-23T14:49:18;11.55;;;2.10;;
20511;SDS011;10414;52.074;5.126;2023-03-23T14:51:51;8.77;;;1.70;;
20511;SDS011;10414;52.074;5.126;2023-03-23T14:54:21;9.80;;;1.70;;
20511;SDS011;10414;52.074;5.126;2023-03-23T14:56:49;6.38;;;1.50;;
20511;SDS011;10414;52.074;5.126;2023-03-23T14:59:16;8.77;;;2.05;;
20511;SDS011;10414;52.074;5.126;2023-03-23T15:01:45;9.32;;;1.60;;
20511;SDS011;10414;52.074;5.126;2023-03-23T15:04:13;8.45;;;2.25;;
20511;SDS011;10414;52.074;5.126;2023-03-23T15:06:43;9.93;;;1.48;;
20511;SDS011;10414;52.074;5.126;2023-03-23T15:09:17;8.77;;;1.52;;
20511;SDS011;10414;52.074;5.126;2023-03-23T15:11:51;6.65;;;1.65;;
20511;SDS011;10414;52.074;5.126;2023-03-23T15:14:22;8.52;;;1.50;;
20511;SDS011;10414;52.074;5.126;2023-03-23T15:16:53;7.93;;;1.60;;
20511;SDS011;10414;52.074;5.126;2023-03-23T15:19:23;9.30;;;1.90;;
20511;SDS011;10414;52.074;5.126;2023-03-23T15:24:25;7.47;;;1.77;;
20511;SDS011;10414;52.074;5.126;2023-03-23T15:27:02;11.82;;;1.83;;
20511;SDS011;10414;52.074;5.126;2023-03-23T15:29:45;11.98;;;1.90;;